Time;durP1;ratioP1;P1;durP2;ratioP2;P2;SDS_P1;SDS_P2;PMS_P1;PMS_P2;Temp;Humidity;BMP_temperature;BMP_pressure;BME280_temperature;BME280_humidity;BME280_pressure;Samples;Min_cycle;Max_cycle;Signal;HPM_P1;HPM_P2
2023/03/11 00:02:09;;;;;;;10.40;6.47;;;;;;;;;;5071964;28;20411;-80
2023/03/11 00:04:35;;;;;;;9.70;7.30;;;;;;;;;;5071796;28;20415;-80
2023/03/11 00:07:01;;;;;;;9.33;6.47;;;;;;;;;;5071375;28;20465;-80
2023/03/11 00:09:27;;;;;;;7.50;6.40;;;;;;;;;;5072771;28;20492;-83
2023/03/11 00:11:53;;;;;;;12.80;8.10;;;;;;;;;;5071678;28;20407;-85
2023/03/11 00:14:19;;;;;;;9.33;7.20;;;;;;;;;;5071826;28;20445;-82
2023/03/11 00:16:45;;;;;;;7.03;5.40;;;;;;;;;;5072891;28;20480;-81
2023/03/11 00:19:11;;;;;;;12.80;8.70;;;;;;;;;;5072658;28;20478;-83
2023/03/11 00:21:36;;;;;;;11.20;7.07;;;;;;;;;;5072829;28;20413;-79
2023/03/11 00:24:02;;;;;;;9.90;5.57;;;;;;;;;;5072718;28;20415;-83
2023/03/11 00:26:29;;;;;;;9.47;7.20;;;;;;;;;;5072994;28;20936;-83
2023/03/11 00:28:55;;;;;;;11.90;7.10;;;;;;;;;;5072941;28;20403;-80
2023/03/11 00:31:21;;;;;;;10.43;6.73;;;;;;;;;;5072862;28;20424;-80
2023/03/11 00:33:47;;;;;;;9.30;7.10;;;;;;;;;;5072538;28;20874;-80
2023/03/11 00:36:24;;;;;;;15.90;9.00;;;;;;;;;;5071400;28;20412;-80
2023/03/11 00:38:50;;;;;;;13.73;8.67;;;;;;;;;;5071196;28;20415;-80
2023/03/11 00:41:16;;;;;;;13.23;9.47;;;;;;;;;;5071315;28;20529;-84
2023/03/11 00:43:42;;;;;;;12.80;9.07;;;;;;;;;;5071326;28;20427;-83
2023/03/11 00:46:09;;;;;;;15.63;9.17;;;;;;;;;;5071286;28;20514;-80
2023/03/11 00:48:34;;;;;;;11.87;8.50;;;;;;;;;;5071375;28;20418;-80
2023/03/11 00:51:00;;;;;;;12.33;7.87;;;;;;;;;;5071046;28;20423;-80
2023/03/11 00:53:26;;;;;;;13.37;8.90;;;;;;;;;;5069158;28;20436;-83
2023/03/11 00:55:52;;;;;;;11.90;8.20;;;;;;;;;;5068395;28;20814;-84
2023/03/11 00:58:18;;;;;;;12.27;7.87;;;;;;;;;;5071263;28;20494;-80
2023/03/11 01:00:44;;;;;;;14.80;10.83;;;;;;;;;;5071123;28;20524;-80
2023/03/11 01:03:10;;;;;;;16.87;8.73;;;;;;;;;;5071015;28;20502;-84
2023/03/11 01:05:36;;;;;;;17.57;8.90;;;;;;;;;;5071141;28;20909;-83
2023/03/11 01:08:02;;;;;;;10.77;7.73;;;;;;;;;;5071987;28;20411;-84
2023/03/11 01:10:29;;;;;;;15.43;10.93;;;;;;;;;;5072406;28;20411;-80
2023/03/11 01:12:55;;;;;;;13.80;9.80;;;;;;;;;;5074464;28;20432;-81
2023/03/11 01:15:24;;;;;;;14.70;9.70;;;;;;;;;;5076211;28;20503;-83
2023/03/11 01:17:50;;;;;;;15.83;10.60;;;;;;;;;;5075908;28;20395;-81
2023/03/11 01:20:16;;;;;;;14.90;9.97;;;;;;;;;;5076173;28;20948;-80
2023/03/11 01:22:42;;;;;;;14.30;9.27;;;;;;;;;;5075749;28;20429;-80
2023/03/11 01:25:11;;;;;;;15.60;10.37;;;;;;;;;;5074756;28;20421;-80
2023/03/11 01:27:37;;;;;;;16.40;10.77;;;;;;;;;;5074550;28;20411;-80
2023/03/11 01:30:03;;;;;;;16.73;10.40;;;;;;;;;;5074539;28;20514;-80
2023/03/11 01:32:29;;;;;;;12.30;9.23;;;;;;;;;;5075889;28;20413;-86
2023/03/11 01:34:55;;;;;;;16.73;11.37;;;;;;;;;;5074623;28;20467;-83
2023/03/11 01:37:24;;;;;;;15.87;10.67;;;;;;;;;;5074042;28;20902;-80
2023/03/11 01:39:53;;;;;;;12.27;9.80;;;;;;;;;;5075654;28;20467;-80
2023/03/11 01:42:19;;;;;;;19.27;10.00;;;;;;;;;;5074510;28;20416;-84
2023/03/11 01:44:44;;;;;;;15.27;11.47;;;;;;;;;;5074332;28;20467;-82
2023/03/11 01:47:11;;;;;;;18.70;11.10;;;;;;;;;;5074352;28;20408;-84
2023/03/11 01:49:40;;;;;;;21.87;12.30;;;;;;;;;;5075561;28;20476;-83
2023/03/11 01:52:07;;;;;;;15.77;10.90;;;;;;;;;;5075135;28;20801;-84
2023/03/11 01:54:35;;;;;;;12.33;8.50;;;;;;;;;;5075521;28;20415;-82
2023/03/11 01:57:01;;;;;;;20.17;11.70;;;;;;;;;;5075596;28;20411;-82
2023/03/11 01:59:31;;;;;;;14.57;9.57;;;;;;;;;;5075266;28;20970;-86
2023/03/11 02:02:04;;;;;;;18.20;11.37;;;;;;;;;;5074179;28;20990;-81
2023/03/11 02:04:33;;;;;;;16.37;10.50;;;;;;;;;;5074125;28;20798;-86
2023/03/11 02:06:59;;;;;;;13.33;10.13;;;;;;;;;;5075325;28;20416;-86
2023/03/11 02:09:25;;;;;;;15.87;12.97;;;;;;;;;;5075227;28;20404;-80
2023/03/11 02:11:52;;;;;;;13.50;10.50;;;;;;;;;;5075399;28;20954;-85
2023/03/11 02:14:18;;;;;;;9.80;7.23;;;;;;;;;;5075340;28;20414;-80
2023/03/11 02:16:43;;;;;;;12.30;9.20;;;;;;;;;;5075271;28;20410;-80
2023/03/11 02:19:20;;;;;;;12.97;9.30;;;;;;;;;;5074884;28;20479;-82
2023/03/11 02:21:46;;;;;;;13.97;9.67;;;;;;;;;;5073511;28;20435;-87
2023/03/11 02:24:20;;;;;;;14.57;10.23;;;;;;;;;;5075074;28;20420;-80
2023/03/11 02:26:50;;;;;;;16.73;10.50;;;;;;;;;;5074920;28;20411;-81
2023/03/11 02:29:16;;;;;;;13.50;8.90;;;;;;;;;;5075094;28;20407;-80
2023/03/11 02:31:43;;;;;;;13.07;9.57;;;;;;;;;;5074871;28;20418;-89
2023/03/11 02:34:14;;;;;;;15.60;8.90;;;;;;;;;;5074672;28;20431;-81
2023/03/11 02:36:41;;;;;;;11.60;8.80;;;;;;;;;;5074596;28;20447;-81
2023/03/11 02:39:07;;;;;;;11.33;9.87;;;;;;;;;;5075295;28;20411;-87
2023/03/11 02:41:36;;;;;;;14.87;10.10;;;;;;;;;;5075167;28;20418;-81
2023/03/11 02:44:02;;;;;;;13.00;8.90;;;;;;;;;;5074813;28;20420;-86
2023/03/11 02:46:28;;;;;;;12.80;9.20;;;;;;;;;;5075148;28;20415;-87
2023/03/11 02:48:55;;;;;;;13.47;10.27;;;;;;;;;;5074899;28;20469;-81
2023/03/11 02:51:21;;;;;;;12.60;8.87;;;;;;;;;;5074993;28;20454;-86
2023/03/11 02:53:49;;;;;;;19.57;11.00;;;;;;;;;;5075453;28;20781;-80
2023/03/11 02:56:15;;;;;;;14.93;10.80;;;;;;;;;;5074612;28;20443;-81
2023/03/11 02:58:41;;;;;;;13.40;9.83;;;;;;;;;;5074537;28;20749;-81
2023/03/11 03:01:06;;;;;;;12.90;9.63;;;;;;;;;;5074541;28;20505;-86
2023/03/11 03:03:33;;;;;;;12.80;8.53;;;;;;;;;;5074362;28;20407;-81
2023/03/11 03:05:58;;;;;;;14.27;9.67;;;;;;;;;;5073290;28;20423;-81
2023/03/11 03:08:24;;;;;;;11.70;8.67;;;;;;;;;;5073985;28;20411;-90
2023/03/11 03:10:50;;;;;;;14.60;9.27;;;;;;;;;;5074200;28;20407;-87
2023/03/11 03:13:17;;;;;;;12.77;8.97;;;;;;;;;;5073135;28;20989;-86
2023/03/11 03:15:43;;;;;;;17.53;9.20;;;;;;;;;;5072771;28;20567;-86
2023/03/11 03:18:09;;;;;;;11.63;8.53;;;;;;;;;;5073876;28;20897;-87
2023/03/11 03:20:35;;;;;;;14.17;10.23;;;;;;;;;;5073149;28;20987;-87
2023/03/11 03:23:01;;;;;;;15.73;10.27;;;;;;;;;;5073131;28;20403;-88
2023/03/11 03:25:27;;;;;;;12.23;9.70;;;;;;;;;;5074274;28;20426;-81
2023/03/11 03:27:53;;;;;;;10.07;7.80;;;;;;;;;;5072648;28;20407;-87
2023/03/11 03:30:19;;;;;;;13.93;8.20;;;;;;;;;;5074347;28;20447;-87
2023/03/11 03:32:45;;;;;;;12.20;8.93;;;;;;;;;;5073052;28;20921;-85
2023/03/11 03:35:11;;;;;;;12.47;9.07;;;;;;;;;;5067998;28;20428;-87
2023/03/11 03:37:38;;;;;;;13.83;9.33;;;;;;;;;;5053572;28;20415;-85
2023/03/11 03:40:07;;;;;;;16.23;10.20;;;;;;;;;;5052320;28;20469;-83
2023/03/11 03:42:36;;;;;;;12.93;8.17;;;;;;;;;;5053465;28;20411;-84
2023/03/11 03:45:03;;;;;;;12.60;8.53;;;;;;;;;;5053476;28;20458;-83
2023/03/11 03:47:29;;;;;;;10.90;6.60;;;;;;;;;;5053653;28;20416;-88
2023/03/11 03:49:55;;;;;;;11.50;8.47;;;;;;;;;;5054034;28;20416;-89
2023/03/11 03:52:21;;;;;;;12.43;7.83;;;;;;;;;;5053559;28;20765;-84
2023/03/11 03:54:47;;;;;;;11.50;8.30;;;;;;;;;;5052888;28;20989;-87
2023/03/11 03:57:13;;;;;;;15.00;9.23;;;;;;;;;;5053946;28;20414;-89
2023/03/11 03:59:38;;;;;;;11.40;8.23;;;;;;;;;;5053901;28;20455;-87
2023/03/11 04:02:04;;;;;;;14.33;7.60;;;;;;;;;;5053592;28;20428;-85
2023/03/11 04:04:30;;;;;;;10.67;7.77;;;;;;;;;;5053204;28;20412;-84
2023/03/11 04:06:56;;;;;;;12.07;8.13;;;;;;;;;;5052810;28;20454;-84
2023/03/11 04:09:22;;;;;;;13.73;8.00;;;;;;;;;;5053171;28;20408;-84
2023/03/11 04:11:48;;;;;;;11.13;6.83;;;;;;;;;;5052935;28;20927;-84
2023/03/11 04:14:14;;;;;;;11.47;8.00;;;;;;;;;;5053049;28;20412;-83
2023/03/11 04:16:40;;;;;;;11.97;6.23;;;;;;;;;;5053020;28;20404;-83
2023/03/11 04:19:06;;;;;;;11.70;7.80;;;;;;;;;;5052728;28;20513;-84
2023/03/11 04:21:32;;;;;;;9.27;7.33;;;;;;;;;;5052636;28;20944;-84
2023/03/11 04:23:58;;;;;;;13.60;7.17;;;;;;;;;;5052888;28;20804;-84
2023/03/11 04:26:24;;;;;;;11.50;8.27;;;;;;;;;;5052860;28;20421;-84
2023/03/11 04:28:50;;;;;;;12.03;8.20;;;;;;;;;;5052837;28;20408;-83
2023/03/11 04:31:16;;;;;;;11.57;8.07;;;;;;;;;;5052843;28;20443;-84
2023/03/11 04:33:42;;;;;;;10.70;7.67;;;;;;;;;;5052818;28;20411;-85
2023/03/11 04:36:09;;;;;;;10.60;7.43;;;;;;;;;;5052369;28;20926;-83
2023/03/11 04:38:35;;;;;;;8.57;6.10;;;;;;;;;;5052789;28;20415;-84
2023/03/11 04:41:01;;;;;;;10.93;8.03;;;;;;;;;;5052673;28;20922;-84
2023/03/11 04:43:27;;;;;;;12.00;7.20;;;;;;;;;;5052707;28;20942;-84
2023/03/11 04:45:53;;;;;;;11.90;7.87;;;;;;;;;;5051444;28;20421;-85
2023/03/11 04:48:19;;;;;;;9.63;6.83;;;;;;;;;;5054296;28;20416;-85
2023/03/11 04:50:45;;;;;;;9.87;7.57;;;;;;;;;;5056805;28;20788;-85
2023/03/11 04:53:11;;;;;;;10.70;6.87;;;;;;;;;;5056326;28;20412;-84
2023/03/11 04:55:37;;;;;;;11.43;8.20;;;;;;;;;;5056698;28;20982;-83
2023/03/11 04:58:03;;;;;;;13.97;6.87;;;;;;;;;;5056746;28;20405;-84
2023/03/11 05:00:29;;;;;;;9.57;6.20;;;;;;;;;;5056826;28;20478;-88
2023/03/11 05:02:55;;;;;;;15.10;8.60;;;;;;;;;;5056985;28;20419;-85
2023/03/11 05:05:21;;;;;;;12.73;8.00;;;;;;;;;;5057175;28;20431;-88
2023/03/11 05:07:47;;;;;;;12.20;7.77;;;;;;;;;;5057074;28;20408;-90
2023/03/11 05:10:14;;;;;;;10.73;7.90;;;;;;;;;;5057459;28;20456;-85
2023/03/11 05:12:40;;;;;;;10.87;6.40;;;;;;;;;;5057258;28;20423;-87
2023/03/11 05:15:06;;;;;;;11.77;6.97;;;;;;;;;;5056859;28;20498;-88
2023/03/11 05:17:32;;;;;;;12.50;9.07;;;;;;;;;;5055358;28;20818;-83
2023/03/11 05:19:58;;;;;;;9.83;8.40;;;;;;;;;;5056249;28;20471;-85
2023/03/11 05:22:24;;;;;;;10.47;7.37;;;;;;;;;;5056200;28;20420;-87
2023/03/11 05:24:50;;;;;;;12.20;8.07;;;;;;;;;;5056367;28;20396;-87
2023/03/11 05:27:20;;;;;;;12.20;8.30;;;;;;;;;;5056396;28;20953;-85
2023/03/11 05:29:46;;;;;;;11.80;7.90;;;;;;;;;;5056151;28;20414;-86
2023/03/11 05:32:12;;;;;;;10.60;7.27;;;;;;;;;;5054853;28;20411;-84
2023/03/11 05:34:38;;;;;;;12.17;7.20;;;;;;;;;;5056168;28;20875;-86
2023/03/11 05:37:04;;;;;;;11.53;7.27;;;;;;;;;;5054282;28;20424;-82
2023/03/11 05:39:30;;;;;;;11.40;7.43;;;;;;;;;;5055862;28;20516;-86
2023/03/11 05:41:56;;;;;;;9.83;7.03;;;;;;;;;;5056029;28;20412;-83
2023/03/11 05:44:22;;;;;;;11.60;8.20;;;;;;;;;;5055710;28;20419;-82
2023/03/11 05:46:48;;;;;;;10.53;8.17;;;;;;;;;;5055682;28;20488;-82
2023/03/11 05:49:14;;;;;;;13.10;8.70;;;;;;;;;;5055597;28;20447;-81
2023/03/11 05:51:40;;;;;;;10.57;8.80;;;;;;;;;;5055195;28;20401;-81
2023/03/11 05:54:13;;;;;;;12.00;6.30;;;;;;;;;;5055550;28;20419;-82
2023/03/11 05:56:40;;;;;;;11.63;8.50;;;;;;;;;;5055552;28;20396;-83
2023/03/11 05:59:06;;;;;;;12.73;7.23;;;;;;;;;;5054908;28;20423;-81
2023/03/11 06:01:32;;;;;;;12.80;8.93;;;;;;;;;;5055347;28;20924;-82
2023/03/11 06:03:57;;;;;;;12.27;7.77;;;;;;;;;;5055310;28;20413;-82
2023/03/11 06:06:23;;;;;;;13.87;8.60;;;;;;;;;;5053713;28;20427;-81
2023/03/11 06:08:49;;;;;;;12.60;7.87;;;;;;;;;;5055265;28;20779;-81
2023/03/11 06:11:16;;;;;;;10.13;7.17;;;;;;;;;;5055351;28;20407;-81
2023/03/11 06:13:42;;;;;;;11.17;7.20;;;;;;;;;;5055282;28;20411;-80
2023/03/11 06:16:08;;;;;;;9.40;5.80;;;;;;;;;;5053957;28;20431;-82
2023/03/11 06:18:34;;;;;;;10.00;6.83;;;;;;;;;;5054182;28;20504;-82
2023/03/11 06:21:01;;;;;;;12.00;7.27;;;;;;;;;;5054570;28;20836;-81
2023/03/11 06:23:27;;;;;;;11.60;7.33;;;;;;;;;;5055166;28;20420;-81
2023/03/11 06:26:00;;;;;;;15.33;7.67;;;;;;;;;;5054966;28;20410;-81
2023/03/11 06:28:26;;;;;;;16.33;8.00;;;;;;;;;;5054934;28;20415;-81
2023/03/11 06:30:55;;;;;;;13.33;8.03;;;;;;;;;;5055046;28;20898;-81
2023/03/11 06:33:21;;;;;;;9.00;7.70;;;;;;;;;;5054944;28;20439;-81
2023/03/11 06:35:55;;;;;;;10.30;6.50;;;;;;;;;;5053111;28;20420;-80
2023/03/11 06:38:21;;;;;;;10.30;7.27;;;;;;;;;;5053926;28;20484;-81
2023/03/11 06:40:47;;;;;;;11.90;7.70;;;;;;;;;;5053938;28;20475;-81
2023/03/11 06:43:13;;;;;;;10.70;6.57;;;;;;;;;;5053977;28;20409;-81
2023/03/11 06:45:39;;;;;;;8.43;6.47;;;;;;;;;;5055337;28;20423;-81
2023/03/11 06:48:05;;;;;;;13.60;8.70;;;;;;;;;;5053718;28;20418;-81
2023/03/11 06:50:31;;;;;;;15.77;8.23;;;;;;;;;;5054798;28;20447;-83
2023/03/11 06:52:57;;;;;;;11.40;7.43;;;;;;;;;;5053484;28;20505;-83
2023/03/11 06:55:23;;;;;;;13.20;7.43;;;;;;;;;;5053579;28;20935;-83
2023/03/11 06:57:49;;;;;;;11.70;8.17;;;;;;;;;;5053163;28;20806;-84
2023/03/11 07:00:21;;;;;;;10.07;7.00;;;;;;;;;;5053321;28;20491;-85
2023/03/11 07:02:54;;;;;;;10.33;7.53;;;;;;;;;;5053993;28;20421;-88
2023/03/11 07:05:19;;;;;;;7.57;6.00;;;;;;;;;;5053700;28;20927;-88
2023/03/11 07:07:49;;;;;;;9.20;5.50;;;;;;;;;;5041862;28;20410;-84
2023/03/11 07:13:07;;;;;;;7.33;4.43;;;;;;;;;;5074293;28;20416;-83
2023/03/11 07:15:34;;;;;;;4.13;3.00;;;;;;;;;;5072773;28;20429;-83
2023/03/11 07:18:05;;;;;;;5.30;3.23;;;;;;;;;;5072168;28;20462;-83
2023/03/11 07:20:32;;;;;;;5.40;3.20;;;;;;;;;;5073831;28;20478;-85
2023/03/11 07:23:00;;;;;;;5.63;4.10;;;;;;;;;;5070149;28;20416;-84
2023/03/11 07:25:28;;;;;;;5.80;3.40;;;;;;;;;;5074590;28;20411;-84
2023/03/11 07:27:53;;;;;;;4.67;3.73;;;;;;;;;;5072844;28;20407;-83
2023/03/11 07:30:19;;;;;;;3.93;2.77;;;;;;;;;;5072395;28;20422;-87
2023/03/11 07:32:45;;;;;;;5.17;3.60;;;;;;;;;;5073634;28;20411;-85
2023/03/11 07:35:11;;;;;;;5.77;3.90;;;;;;;;;;5072470;28;20423;-83
2023/03/11 07:37:37;;;;;;;4.90;2.80;;;;;;;;;;5073207;28;20458;-82
2023/03/11 07:40:03;;;;;;;6.30;3.67;;;;;;;;;;5072069;28;20986;-83
2023/03/11 07:42:29;;;;;;;5.47;3.73;;;;;;;;;;5072329;28;20503;-87
2023/03/11 07:44:55;;;;;;;4.80;3.50;;;;;;;;;;5072041;28;20520;-82
2023/03/11 07:47:23;;;;;;;5.70;3.37;;;;;;;;;;5072107;28;20415;-83
2023/03/11 07:49:49;;;;;;;3.40;2.70;;;;;;;;;;5072157;28;20420;-82
2023/03/11 07:52:15;;;;;;;6.60;3.63;;;;;;;;;;5073007;28;20419;-83
2023/03/11 07:54:41;;;;;;;4.17;3.27;;;;;;;;;;5072108;28;20415;-85
2023/03/11 07:57:11;;;;;;;6.27;3.60;;;;;;;;;;5071787;28;20485;-87
2023/03/11 07:59:44;;;;;;;3.67;2.17;;;;;;;;;;5073495;28;20522;-85
2023/03/11 08:02:10;;;;;;;4.90;2.80;;;;;;;;;;5072030;28;20414;-85
2023/03/11 08:04:36;;;;;;;3.53;3.13;;;;;;;;;;5071942;28;20433;-85
2023/03/11 08:07:02;;;;;;;3.67;2.60;;;;;;;;;;5071401;28;20785;-85
2023/03/11 08:09:28;;;;;;;3.53;3.10;;;;;;;;;;5071991;28;20945;-87
2023/03/11 08:11:54;;;;;;;5.70;2.90;;;;;;;;;;5071676;28;20419;-87
2023/03/11 08:14:20;;;;;;;3.77;2.57;;;;;;;;;;5071850;28;20174;-86
2023/03/11 08:16:46;;;;;;;3.67;3.17;;;;;;;;;;5013257;28;20470;-86
2023/03/11 08:19:12;;;;;;;4.90;2.50;;;;;;;;;;5053306;28;20475;-86
2023/03/11 08:21:38;;;;;;;3.00;2.33;;;;;;;;;;5053153;28;20428;-84
2023/03/11 08:24:05;;;;;;;3.93;2.90;;;;;;;;;;5053226;28;20421;-85
2023/03/11 08:26:33;;;;;;;4.27;3.03;;;;;;;;;;5068448;28;20199;-85
2023/03/11 08:28:59;;;;;;;3.40;2.30;;;;;;;;;;5068377;28;20537;-86
2023/03/11 08:31:27;;;;;;;2.90;2.10;;;;;;;;;;5053582;28;20505;-88
2023/03/11 08:33:55;;;;;;;4.53;2.50;;;;;;;;;;5069129;28;20493;-88
2023/03/11 08:36:21;;;;;;;4.73;3.37;;;;;;;;;;5068392;28;20908;-85
2023/03/11 08:38:47;;;;;;;3.63;2.60;;;;;;;;;;5053066;28;20411;-88
2023/03/11 08:41:13;;;;;;;3.50;2.93;;;;;;;;;;5068158;28;20484;-88
2023/03/11 08:43:41;;;;;;;3.00;2.27;;;;;;;;;;5052906;28;20493;-88
2023/03/11 08:46:08;;;;;;;4.10;1.87;;;;;;;;;;5067630;28;20178;-87
2023/03/11 08:48:35;;;;;;;4.40;1.80;;;;;;;;;;5067559;28;20462;-87
2023/03/11 08:51:01;;;;;;;2.50;1.87;;;;;;;;;;5067715;28;20409;-87
2023/03/11 08:53:27;;;;;;;4.33;2.87;;;;;;;;;;5068025;28;20426;-86
2023/03/11 08:55:53;;;;;;;3.13;2.23;;;;;;;;;;5067936;28;20434;-86
2023/03/11 08:58:19;;;;;;;2.80;2.03;;;;;;;;;;5068109;28;20420;-87
2023/03/11 09:00:45;;;;;;;2.50;1.90;;;;;;;;;;5067960;28;20484;-87
2023/03/11 09:03:12;;;;;;;3.80;2.40;;;;;;;;;;5052477;28;20418;-87
2023/03/11 09:05:38;;;;;;;4.07;2.40;;;;;;;;;;5052278;28;20465;-87
2023/03/11 09:08:04;;;;;;;3.27;1.87;;;;;;;;;;5057321;28;20818;-86
2023/03/11 09:10:30;;;;;;;3.77;2.17;;;;;;;;;;5065591;28;20180;-86
2023/03/11 09:12:56;;;;;;;4.60;2.50;;;;;;;;;;5070286;28;20810;-87
2023/03/11 09:15:22;;;;;;;3.20;2.20;;;;;;;;;;5070933;28;20629;-87
2023/03/11 09:17:48;;;;;;;3.07;1.80;;;;;;;;;;5030978;28;20195;-88
2023/03/11 09:20:14;;;;;;;3.07;2.53;;;;;;;;;;5073980;28;20813;-86
2023/03/11 09:22:40;;;;;;;4.07;2.47;;;;;;;;;;5071841;28;20172;-87
2023/03/11 09:25:06;;;;;;;1.97;1.77;;;;;;;;;;5072018;28;20421;-84
2023/03/11 09:27:32;;;;;;;4.10;1.90;;;;;;;;;;5071081;28;20510;-83
2023/03/11 09:29:58;;;;;;;3.20;1.90;;;;;;;;;;5070199;28;20514;-82
2023/03/11 09:32:24;;;;;;;3.10;1.70;;;;;;;;;;5072057;28;20173;-83
2023/03/11 09:34:50;;;;;;;1.50;1.23;;;;;;;;;;5075416;28;20181;-83
2023/03/11 09:37:22;;;;;;;2.80;1.30;;;;;;;;;;5073957;28;20251;-82
2023/03/11 09:39:50;;;;;;;2.43;1.87;;;;;;;;;;5074170;28;20221;-82
2023/03/11 09:42:20;;;;;;;2.63;1.70;;;;;;;;;;5073034;28;20431;-82
2023/03/11 09:44:45;;;;;;;3.50;1.93;;;;;;;;;;5072715;28;20993;-83
2023/03/11 09:47:27;;;;;;;3.03;1.43;;;;;;;;;;5072582;28;20423;-84
2023/03/11 09:50:03;;;;;;;1.80;1.47;;;;;;;;;;5071819;28;20183;-85
2023/03/11 09:52:50;;;;;;;3.20;1.50;;;;;;;;;;5073744;28;20403;-85
2023/03/11 09:55:24;;;;;;;2.23;0.73;;;;;;;;;;5072160;28;20443;-85
2023/03/11 09:57:51;;;;;;;1.83;0.97;;;;;;;;;;5071266;28;20438;-83
2023/03/11 10:00:18;;;;;;;2.53;1.10;;;;;;;;;;5073832;28;20466;-85
2023/03/11 10:02:44;;;;;;;2.60;1.07;;;;;;;;;;5072462;28;20423;-84
2023/03/11 10:05:16;;;;;;;2.13;0.80;;;;;;;;;;5072808;28;20431;-85
2023/03/11 10:07:45;;;;;;;1.83;1.43;;;;;;;;;;5075013;28;20489;-84
2023/03/11 10:10:12;;;;;;;1.90;1.20;;;;;;;;;;5072469;28;20930;-85
2023/03/11 10:12:55;;;;;;;2.20;1.50;;;;;;;;;;5073845;28;20456;-84
2023/03/11 10:15:39;;;;;;;2.07;1.20;;;;;;;;;;5071825;28;21010;-83
2023/03/11 10:18:05;;;;;;;2.10;1.30;;;;;;;;;;5030828;28;20779;-83
2023/03/11 10:20:30;;;;;;;5.40;1.30;;;;;;;;;;5070613;28;20863;-83
2023/03/11 10:23:08;;;;;;;3.57;2.03;;;;;;;;;;5072204;28;20518;-85
2023/03/11 10:25:50;;;;;;;4.30;2.40;;;;;;;;;;5072728;28;20238;-84
2023/03/11 10:28:21;;;;;;;2.43;2.07;;;;;;;;;;5072308;28;20482;-83
2023/03/11 10:30:49;;;;;;;3.67;2.80;;;;;;;;;;5073753;28;20426;-84
2023/03/11 10:33:28;;;;;;;4.83;3.37;;;;;;;;;;5074884;28;20411;-84
2023/03/11 10:35:56;;;;;;;2.00;1.67;;;;;;;;;;5073174;28;20907;-83
2023/03/11 10:38:36;;;;;;;2.27;2.03;;;;;;;;;;5073600;28;20903;-84
2023/03/11 10:41:04;;;;;;;2.70;2.37;;;;;;;;;;5073527;28;20527;-83
2023/03/11 10:43:36;;;;;;;2.80;1.77;;;;;;;;;;5073417;28;20451;-84
2023/03/11 10:46:06;;;;;;;2.70;1.97;;;;;;;;;;5073352;28;20820;-84
2023/03/11 10:48:32;;;;;;;2.20;1.60;;;;;;;;;;5075389;28;20419;-85
2023/03/11 10:51:02;;;;;;;2.60;2.13;;;;;;;;;;5072985;28;20435;-86
2023/03/11 10:53:28;;;;;;;3.77;1.60;;;;;;;;;;5072830;28;20515;-86
2023/03/11 10:55:56;;;;;;;3.10;1.50;;;;;;;;;;5073181;28;20416;-85
2023/03/11 10:58:26;;;;;;;4.40;1.37;;;;;;;;;;5073010;28;20427;-85
2023/03/11 11:01:10;;;;;;;2.63;1.90;;;;;;;;;;5069598;28;20519;-83
2023/03/11 11:03:36;;;;;;;3.30;1.63;;;;;;;;;;5071737;28;20477;-84
2023/03/11 11:06:04;;;;;;;1.70;1.60;;;;;;;;;;5071434;28;20419;-87
2023/03/11 11:08:30;;;;;;;2.43;1.50;;;;;;;;;;5074090;28;20411;-86
2023/03/11 11:10:58;;;;;;;2.20;1.23;;;;;;;;;;5076284;28;20420;-91
2023/03/11 11:13:34;;;;;;;1.97;1.00;;;;;;;;;;5071438;28;20407;-82
2023/03/11 11:16:05;;;;;;;5.10;1.77;;;;;;;;;;5071790;28;20959;-83
2023/03/11 11:18:36;;;;;;;2.47;1.70;;;;;;;;;;5028003;28;20511;-78
2023/03/11 11:21:09;;;;;;;2.60;1.13;;;;;;;;;;5052555;28;20475;-83
2023/03/11 11:23:41;;;;;;;3.97;1.57;;;;;;;;;;5051418;28;20470;-84
2023/03/11 11:26:27;;;;;;;2.73;1.63;;;;;;;;;;5052840;28;20422;-83
2023/03/11 11:29:07;;;;;;;1.57;1.40;;;;;;;;;;5051273;28;20416;-82
2023/03/11 11:31:33;;;;;;;3.23;1.40;;;;;;;;;;5052531;28;20423;-85
2023/03/11 11:34:02;;;;;;;2.30;1.27;;;;;;;;;;5052531;28;20412;-83
2023/03/11 11:36:32;;;;;;;3.30;0.90;;;;;;;;;;5051410;28;20264;-82
2023/03/11 11:38:59;;;;;;;2.50;0.90;;;;;;;;;;5051275;28;20420;-83
2023/03/11 11:41:40;;;;;;;2.70;1.00;;;;;;;;;;5052412;28;20574;-84
2023/03/11 11:44:20;;;;;;;5.33;1.73;;;;;;;;;;5051313;28;20610;-84
2023/03/11 11:46:50;;;;;;;3.03;1.43;;;;;;;;;;5034241;28;20442;-83
2023/03/11 11:49:27;;;;;;;3.90;2.00;;;;;;;;;;5070878;28;20411;-83
2023/03/11 11:52:28;;;;;;;2.30;1.33;;;;;;;;;;5071093;28;20415;-82
2023/03/11 11:55:07;;;;;;;2.90;1.33;;;;;;;;;;5071936;28;20416;-83
2023/03/11 11:57:33;;;;;;;3.03;1.40;;;;;;;;;;5072826;28;20902;-82
2023/03/11 12:00:04;;;;;;;1.97;1.60;;;;;;;;;;5071966;28;20461;-82
2023/03/11 12:02:45;;;;;;;3.07;1.30;;;;;;;;;;5072914;28;20506;-84
2023/03/11 12:05:31;;;;;;;4.07;1.50;;;;;;;;;;5071636;28;20452;-82
2023/03/11 12:08:13;;;;;;;6.13;1.43;;;;;;;;;;5072005;28;20901;-82
2023/03/11 12:10:42;;;;;;;2.60;1.30;;;;;;;;;;5071865;28;20415;-83
2023/03/11 12:13:14;;;;;;;2.57;0.90;;;;;;;;;;5071745;28;20406;-83
2023/03/11 12:15:40;;;;;;;1.13;0.80;;;;;;;;;;5072233;28;20416;-82
2023/03/11 12:18:11;;;;;;;4.33;1.23;;;;;;;;;;5061784;28;20463;-82
2023/03/11 12:20:42;;;;;;;3.07;1.30;;;;;;;;;;5046639;28;20221;-83
2023/03/11 12:23:17;;;;;;;2.40;1.20;;;;;;;;;;5071711;28;20477;-83
2023/03/11 12:26:02;;;;;;;1.97;0.70;;;;;;;;;;5071582;28;20415;-81
2023/03/11 12:28:36;;;;;;;2.53;1.27;;;;;;;;;;5071556;28;20411;-84
2023/03/11 12:31:04;;;;;;;3.40;0.77;;;;;;;;;;5072977;28;20402;-83
2023/03/11 12:33:33;;;;;;;2.10;0.60;;;;;;;;;;5072789;28;20415;-83
2023/03/11 12:35:59;;;;;;;2.50;0.83;;;;;;;;;;5071140;28;20414;-82
2023/03/11 12:38:28;;;;;;;1.57;0.90;;;;;;;;;;5071687;28;20742;-83
2023/03/11 12:40:59;;;;;;;2.90;1.00;;;;;;;;;;5071367;28;21005;-82
2023/03/11 12:43:28;;;;;;;3.20;1.53;;;;;;;;;;5072777;28;20422;-82
2023/03/11 12:45:58;;;;;;;2.13;0.87;;;;;;;;;;5071519;28;20414;-82
2023/03/11 12:48:24;;;;;;;2.77;0.80;;;;;;;;;;5071471;28;21013;-81
2023/03/11 12:50:50;;;;;;;4.43;1.00;;;;;;;;;;5072322;28;20411;-82
2023/03/11 12:53:20;;;;;;;2.90;1.40;;;;;;;;;;5071305;28;20987;-82
2023/03/11 12:56:01;;;;;;;7.20;1.30;;;;;;;;;;5072573;28;20423;-81
2023/03/11 12:58:43;;;;;;;2.70;1.00;;;;;;;;;;5071320;28;20469;-82
2023/03/11 13:01:17;;;;;;;2.73;0.60;;;;;;;;;;5072508;28;20823;-82
2023/03/11 13:03:48;;;;;;;5.97;2.23;;;;;;;;;;5072430;28;20463;-81
2023/03/11 13:06:29;;;;;;;1.57;0.60;;;;;;;;;;5072011;28;20811;-83
2023/03/11 13:08:57;;;;;;;7.47;1.77;;;;;;;;;;5074690;28;20422;-82
2023/03/11 13:11:32;;;;;;;3.97;1.63;;;;;;;;;;5075190;28;20425;-82
2023/03/11 13:14:19;;;;;;;3.03;0.60;;;;;;;;;;5076386;28;20414;-83
2023/03/11 13:16:45;;;;;;;7.40;0.93;;;;;;;;;;5075199;28;20497;-87
2023/03/11 13:19:30;;;;;;;2.20;0.70;;;;;;;;;;5068712;28;20904;-82
2023/03/11 13:21:58;;;;;;;1.37;0.70;;;;;;;;;;5015080;28;20973;-83
2023/03/11 13:24:30;;;;;;;3.87;0.93;;;;;;;;;;5053929;28;20419;-86
2023/03/11 13:27:05;;;;;;;4.43;1.10;;;;;;;;;;5055542;28;20517;-85
2023/03/11 13:29:51;;;;;;;2.03;0.70;;;;;;;;;;5073738;28;20424;-80
2023/03/11 13:32:17;;;;;;;2.10;0.90;;;;;;;;;;5074931;28;20427;-80
2023/03/11 13:34:43;;;;;;;3.47;0.90;;;;;;;;;;5074593;28;20412;-82
2023/03/11 13:37:17;;;;;;;3.03;0.77;;;;;;;;;;5073447;28;20423;-80
2023/03/11 13:39:55;;;;;;;5.10;0.97;;;;;;;;;;5074887;28;20184;-80
2023/03/11 13:42:21;;;;;;;3.50;0.70;;;;;;;;;;5074114;28;20434;-83
2023/03/11 13:44:49;;;;;;;1.50;0.40;;;;;;;;;;5074612;28;20484;-84
2023/03/11 13:47:19;;;;;;;1.90;0.73;;;;;;;;;;5076040;28;20830;-83
2023/03/11 13:49:51;;;;;;;4.47;0.60;;;;;;;;;;5075406;28;20416;-83
2023/03/11 13:52:28;;;;;;;4.03;0.90;;;;;;;;;;5073901;28;20430;-82
2023/03/11 13:55:00;;;;;;;2.57;1.33;;;;;;;;;;5074308;28;20876;-82
2023/03/11 13:57:28;;;;;;;1.97;1.20;;;;;;;;;;5074138;28;20411;-83
2023/03/11 13:59:55;;;;;;;1.80;0.67;;;;;;;;;;5075429;28;20511;-82
2023/03/11 14:02:23;;;;;;;1.73;0.87;;;;;;;;;;5075453;28;20768;-83
2023/03/11 14:04:54;;;;;;;2.30;1.07;;;;;;;;;;5075102;28;20415;-84
2023/03/11 14:07:23;;;;;;;5.17;0.60;;;;;;;;;;5075432;28;20422;-83
2023/03/11 14:09:49;;;;;;;4.57;0.93;;;;;;;;;;5075398;28;20447;-83
2023/03/11 14:12:16;;;;;;;1.63;0.80;;;;;;;;;;5075339;28;20440;-82
2023/03/11 14:15:00;;;;;;;1.37;0.43;;;;;;;;;;5075254;28;20421;-82
2023/03/11 14:17:26;;;;;;;2.50;0.40;;;;;;;;;;5075277;28;20425;-82
2023/03/11 14:20:11;;;;;;;2.67;0.93;;;;;;;;;;5074161;28;20474;-83
2023/03/11 14:22:37;;;;;;;11.40;1.40;;;;;;;;;;5075135;28;20419;-82
2023/03/11 14:25:09;;;;;;;2.30;0.63;;;;;;;;;;5075071;28;20412;-82
2023/03/11 14:27:39;;;;;;;3.57;0.77;;;;;;;;;;5074894;28;20411;-82
2023/03/11 14:30:05;;;;;;;2.87;0.60;;;;;;;;;;5074938;28;20473;-82
2023/03/11 14:32:33;;;;;;;2.20;0.57;;;;;;;;;;5073609;28;21005;-83
2023/03/11 14:34:59;;;;;;;4.33;0.80;;;;;;;;;;5074523;28;20403;-81
2023/03/11 14:37:30;;;;;;;3.73;0.70;;;;;;;;;;5073463;28;20906;-82
2023/03/11 14:39:55;;;;;;;2.53;0.33;;;;;;;;;;5073519;28;20469;-83
2023/03/11 14:42:31;;;;;;;2.00;0.40;;;;;;;;;;5074782;28;20423;-82
2023/03/11 14:45:06;;;;;;;7.50;0.40;;;;;;;;;;5074675;28;20465;-83
2023/03/11 14:47:38;;;;;;;1.33;0.50;;;;;;;;;;5074781;28;20419;-82